Time;durP1;ratioP1;P1;durP2;ratioP2;P2;SDS_P1;SDS_P2;PMS_P1;PMS_P2;Temp;Humidity;BMP_temperature;BMP_pressure;BME280_temperature;BME280_humidity;BME280_pressure;Samples;Min_cycle;Max_cycle;Signal;HPM_P1;HPM_P2
2023/03/20 05:22:32;;;;;;;18.10;7.43;;;;;;;8.69;100.00;100620.94;5109275;27;20407;-68
2023/03/20 05:25:32;;;;;;;17.75;6.50;;;;;;;8.75;100.00;100611.53;5108173;28;20043;-69
2023/03/20 05:28:18;;;;;;;21.02;7.53;;;;;;;8.75;100.00;100616.00;5109376;28;20047;-67
2023/03/20 05:31:05;;;;;;;25.02;9.07;;;;;;;8.78;100.00;100619.19;5108077;28;20059;-68
2023/03/20 05:33:58;;;;;;;22.90;8.32;;;;;;;8.84;100.00;100623.03;5107785;28;20063;-67
2023/03/20 05:36:44;;;;;;;20.70;8.02;;;;;;;8.84;100.00;100629.19;5107959;28;20052;-68
2023/03/20 05:39:31;;;;;;;19.80;8.27;;;;;;;8.88;100.00;100635.03;5108126;28;20031;-68
2023/03/20 05:42:17;;;;;;;18.63;8.07;;;;;;;8.87;100.00;100630.72;5107657;28;20068;-67
2023/03/20 05:44:42;;;;;;;25.88;8.95;;;;;;;8.87;100.00;100633.38;5108987;28;20520;-65
2023/03/20 05:47:37;;;;;;;22.33;8.50;;;;;;;8.86;100.00;100637.00;5108951;28;20051;-67
2023/03/20 05:50:20;;;;;;;27.30;9.43;;;;;;;8.90;100.00;100643.69;5109148;28;20046;-67
2023/03/20 05:52:53;;;;;;;20.73;9.18;;;;;;;8.91;100.00;100643.53;5107310;28;20032;-68
2023/03/20 05:55:43;;;;;;;22.83;9.05;;;;;;;8.89;100.00;100648.16;5108345;28;20127;-68
2023/03/20 05:58:25;;;;;;;29.50;10.80;;;;;;;8.92;100.00;100645.19;5107600;28;20036;-68
2023/03/20 06:01:03;;;;;;;20.27;9.02;;;;;;;8.93;100.00;100638.06;5107466;28;20126;-68
2023/03/20 06:03:55;;;;;;;29.88;9.18;;;;;;;9.01;100.00;100632.00;5107095;28;20028;-68
2023/03/20 06:06:41;;;;;;;29.88;9.82;;;;;;;8.96;100.00;100633.28;5108535;28;20044;-68
2023/03/20 06:09:06;;;;;;;21.75;8.85;;;;;;;9.01;100.00;100634.66;5107415;28;20523;-68
2023/03/20 06:11:32;;;;;;;28.25;10.32;;;;;;;9.06;100.00;100632.34;5107279;28;20426;-67
2023/03/20 06:13:58;;;;;;;30.95;9.57;;;;;;;9.08;100.00;100633.06;5107685;28;20638;-66
2023/03/20 06:16:31;;;;;;;32.70;9.43;;;;;;;9.16;100.00;100641.91;5106310;28;20579;-66
2023/03/20 06:18:58;;;;;;;22.60;9.50;;;;;;;9.22;100.00;100643.97;5107619;28;20084;-66
2023/03/20 06:21:24;;;;;;;23.02;9.40;;;;;;;9.25;100.00;100638.31;5107265;28;20024;-67
2023/03/20 06:23:50;;;;;;;22.08;8.85;;;;;;;9.37;100.00;100643.38;5108412;28;20055;-67
2023/03/20 06:26:16;;;;;;;26.35;9.50;;;;;;;9.52;100.00;100644.50;5107389;28;20036;-66
2023/03/20 06:29:03;;;;;;;22.35;9.05;;;;;;;9.47;100.00;100642.31;5107459;28;20036;-66
2023/03/20 06:31:30;;;;;;;27.90;10.68;;;;;;;9.55;100.00;100660.13;5107272;28;20039;-65
2023/03/20 06:33:56;;;;;;;19.20;8.57;;;;;;;9.58;100.00;100669.63;5093240;28;20040;-66
2023/03/20 06:36:22;;;;;;;16.13;6.78;;;;;;;9.59;100.00;100676.63;5093545;28;20097;-65
2023/03/20 06:38:54;;;;;;;22.95;9.35;;;;;;;9.55;100.00;100678.75;5093562;28;20023;-56
2023/03/20 06:41:21;;;;;;;23.25;9.65;;;;;;;9.62;100.00;100681.63;5093548;28;20028;-66
2023/03/20 06:43:46;;;;;;;19.98;7.88;;;;;;;9.60;100.00;100684.44;5093241;28;20036;-67
2023/03/20 06:46:12;;;;;;;19.10;8.07;;;;;;;9.59;100.00;100688.09;5093577;28;20039;-66
2023/03/20 06:48:37;;;;;;;24.08;8.48;;;;;;;9.59;100.00;100684.59;5093517;28;20130;-67
2023/03/20 06:51:06;;;;;;;28.77;9.55;;;;;;;9.61;100.00;100683.44;5093356;28;20460;-66
2023/03/20 06:53:38;;;;;;;22.08;9.18;;;;;;;9.55;100.00;100694.72;5093185;28;20051;-68
2023/03/20 06:56:07;;;;;;;20.48;8.07;;;;;;;9.53;100.00;100696.69;5093262;28;20089;-67
2023/03/20 06:58:33;;;;;;;17.90;7.43;;;;;;;9.54;100.00;100698.38;5093269;28;20467;-65
2023/03/20 07:00:59;;;;;;;20.63;8.77;;;;;;;9.56;100.00;100696.38;5094406;28;20113;-65
2023/03/20 07:03:24;;;;;;;22.10;8.10;;;;;;;9.57;100.00;100700.69;5094038;28;20070;-65
2023/03/20 07:05:51;;;;;;;17.30;7.43;;;;;;;9.60;100.00;100700.41;5092971;28;20039;-65
2023/03/20 07:08:18;;;;;;;21.52;8.88;;;;;;;9.67;100.00;100701.44;5093121;28;20038;-65
2023/03/20 07:10:44;;;;;;;17.75;7.10;;;;;;;9.69;100.00;100701.28;5093002;28;20036;-65
2023/03/20 07:13:11;;;;;;;23.80;7.80;;;;;;;9.70;100.00;100694.97;5092719;28;20051;-65
2023/03/20 07:15:38;;;;;;;18.08;7.70;;;;;;;9.77;100.00;100696.84;5076624;28;20438;-66
2023/03/20 07:18:06;;;;;;;18.42;7.22;;;;;;;9.84;100.00;100696.22;5092798;28;20036;-66
2023/03/20 07:20:32;;;;;;;14.55;6.57;;;;;;;9.87;100.00;100704.72;5092717;28;20032;-66
2023/03/20 07:22:58;;;;;;;14.73;6.22;;;;;;;9.85;100.00;100706.72;5092472;28;20028;-66
2023/03/20 07:25:26;;;;;;;15.68;6.38;;;;;;;9.83;100.00;100699.88;5092632;28;20040;-65
2023/03/20 07:27:52;;;;;;;16.73;7.15;;;;;;;9.82;100.00;100708.84;5092863;28;20385;-65
2023/03/20 07:30:21;;;;;;;18.95;7.30;;;;;;;9.83;100.00;100706.03;5092824;28;20036;-65
2023/03/20 07:32:47;;;;;;;14.45;6.78;;;;;;;9.83;100.00;100707.84;5092395;28;20601;-65
2023/03/20 07:35:14;;;;;;;16.25;6.97;;;;;;;9.84;100.00;100705.03;5092506;28;20043;-65
2023/03/20 07:37:41;;;;;;;18.83;6.25;;;;;;;9.81;100.00;100691.22;5081997;28;20035;-66
2023/03/20 07:40:08;;;;;;;14.90;6.13;;;;;;;9.81;100.00;100692.06;5073499;28;20036;-66
2023/03/20 07:42:48;;;;;;;14.63;6.38;;;;;;;9.83;100.00;100689.22;5072153;28;20081;-63
2023/03/20 07:45:34;;;;;;;16.58;6.45;;;;;;;9.87;100.00;100690.59;5072282;28;20464;-65
2023/03/20 07:47:59;;;;;;;16.10;6.75;;;;;;;10.01;100.00;100695.31;5073336;28;20116;-65
2023/03/20 07:50:25;;;;;;;14.63;6.60;;;;;;;10.11;100.00;100690.72;5072102;28;20036;-66
2023/03/20 07:52:51;;;;;;;17.60;6.72;;;;;;;10.28;100.00;100694.31;5073003;28;20052;-65
2023/03/20 07:55:19;;;;;;;14.23;6.65;;;;;;;10.45;100.00;100685.38;5071991;28;20067;-64
2023/03/20 07:57:47;;;;;;;12.80;6.22;;;;;;;10.60;100.00;100685.59;5072313;28;20036;-65
2023/03/20 08:00:14;;;;;;;18.27;7.65;;;;;;;10.81;100.00;100677.97;5071796;28;20516;-65
2023/03/20 08:02:39;;;;;;;15.43;5.90;;;;;;;11.00;100.00;100682.16;5072965;28;20052;-66
2023/03/20 08:05:05;;;;;;;16.70;6.65;;;;;;;11.19;98.68;100685.50;5072953;28;20032;-66
2023/03/20 08:07:30;;;;;;;13.18;5.57;;;;;;;11.22;97.36;100691.34;5073177;28;20486;-64
2023/03/20 08:09:56;;;;;;;15.50;6.40;;;;;;;11.32;96.55;100688.50;5072930;28;20032;-65
2023/03/20 08:12:21;;;;;;;10.30;5.13;;;;;;;11.39;94.84;100676.16;5072656;28;20037;-66
2023/03/20 08:14:47;;;;;;;15.70;6.47;;;;;;;11.50;93.17;100681.16;5072882;28;20078;-65
2023/03/20 08:17:13;;;;;;;14.75;6.88;;;;;;;11.40;91.90;100688.50;5072702;28;20529;-65
2023/03/20 08:19:41;;;;;;;13.43;5.32;;;;;;;11.47;92.58;100692.16;5072929;28;20039;-66
2023/03/20 08:22:07;;;;;;;12.40;4.78;;;;;;;11.67;91.38;100693.47;5073769;28;20032;-64
2023/03/20 08:24:32;;;;;;;9.95;4.80;;;;;;;11.78;92.17;100694.94;5072458;28;20029;-65
2023/03/20 08:26:58;;;;;;;9.70;4.57;;;;;;;11.69;87.02;100695.97;5071070;28;20045;-65
2023/03/20 08:29:23;;;;;;;14.05;5.55;;;;;;;11.71;88.02;100698.47;5072555;28;20037;-64
2023/03/20 08:31:49;;;;;;;12.57;4.93;;;;;;;11.76;88.79;100701.47;5072474;28;20036;-65
2023/03/20 08:34:14;;;;;;;16.55;6.45;;;;;;;11.87;87.73;100706.50;5072371;28;20123;-65
2023/03/20 08:36:40;;;;;;;10.27;5.22;;;;;;;11.97;88.75;100709.78;5072322;28;20400;-65
2023/03/20 08:39:06;;;;;;;14.30;5.32;;;;;;;12.15;88.59;100707.72;5072374;28;20029;-66
2023/03/20 08:41:33;;;;;;;10.68;5.40;;;;;;;12.22;87.92;100708.69;5071048;28;20501;-65
2023/03/20 08:43:58;;;;;;;12.65;5.57;;;;;;;12.20;86.02;100716.06;5072013;28;20059;-65
2023/03/20 08:46:24;;;;;;;10.15;5.15;;;;;;;12.10;83.57;100712.75;5072322;28;20076;-66
2023/03/20 08:48:50;;;;;;;14.15;5.07;;;;;;;12.06;83.10;100723.94;5072174;28;20051;-55
2023/03/20 08:51:15;;;;;;;9.93;5.53;;;;;;;11.95;83.17;100717.97;5072254;28;20036;-59
2023/03/20 08:53:41;;;;;;;10.43;5.22;;;;;;;12.01;85.09;100728.97;5071915;28;20527;-59
2023/03/20 08:56:07;;;;;;;13.52;5.22;;;;;;;12.25;83.99;100734.22;5071874;28;20033;-60
2023/03/20 08:58:32;;;;;;;13.95;5.57;;;;;;;12.08;83.47;100732.63;5072245;28;20460;-60
2023/03/20 09:01:03;;;;;;;9.50;4.80;;;;;;;12.21;84.33;100733.75;5072152;28;20128;-60
2023/03/20 09:03:29;;;;;;;11.05;5.57;;;;;;;12.23;85.27;100733.56;5071350;28;20044;-59
2023/03/20 09:05:54;;;;;;;13.55;5.43;;;;;;;12.36;85.31;100720.50;5072049;28;20377;-60
2023/03/20 09:08:20;;;;;;;9.65;5.38;;;;;;;12.47;85.46;100719.31;5072053;28;20036;-61
2023/03/20 09:10:50;;;;;;;11.63;5.30;;;;;;;12.51;82.84;100725.94;5071993;28;20090;-60
2023/03/20 09:13:15;;;;;;;10.18;5.05;;;;;;;12.44;81.90;100730.31;5071775;28;20041;-60
2023/03/20 09:15:41;;;;;;;10.75;4.93;;;;;;;12.44;82.35;100732.97;5071851;28;20477;-59
2023/03/20 09:18:07;;;;;;;11.88;4.13;;;;;;;12.53;82.02;100728.47;5071731;28;20074;-61
2023/03/20 09:20:33;;;;;;;9.95;4.55;;;;;;;12.45;80.75;100735.50;5071760;28;20040;-60
2023/03/20 09:22:58;;;;;;;7.35;4.03;;;;;;;12.61;79.37;100745.28;5071588;28;20037;-60
2023/03/20 09:25:23;;;;;;;9.75;4.10;;;;;;;12.55;79.87;100745.97;5071865;28;20508;-60
2023/03/20 09:27:55;;;;;;;8.98;4.30;;;;;;;12.84;80.07;100745.31;5071915;28;20025;-60
2023/03/20 09:30:22;;;;;;;7.88;4.00;;;;;;;12.92;81.07;100752.47;5071798;28;20044;-61
2023/03/20 09:32:49;;;;;;;7.05;3.22;;;;;;;13.03;80.49;100754.72;5071517;28;20416;-61
2023/03/20 09:35:15;;;;;;;8.83;3.97;;;;;;;13.22;79.16;100748.13;5071736;28;20036;-59
2023/03/20 09:37:41;;;;;;;7.85;3.53;;;;;;;13.20;76.85;100761.69;5071683;28;20037;-60
2023/03/20 09:40:08;;;;;;;5.97;3.17;;;;;;;13.04;77.18;100770.63;5072031;28;20368;-60
2023/03/20 09:42:46;;;;;;;7.00;3.90;;;;;;;13.29;76.16;100765.94;5071353;28;20132;-60
2023/03/20 09:45:43;;;;;;;7.38;3.22;;;;;;;12.98;76.44;100773.16;5071584;28;20040;-53
2023/03/20 09:48:47;;;;;;;7.70;3.35;;;;;;;12.99;75.94;100769.47;5071551;28;20039;-65
2023/03/20 09:51:20;;;;;;;9.00;4.07;;;;;;;13.13;75.37;100774.06;5029415;28;20041;-66
2023/03/20 09:53:55;;;;;;;7.13;3.28;;;;;;;13.21;76.25;100784.75;5065475;28;20044;-65
2023/03/20 09:56:24;;;;;;;8.80;3.80;;;;;;;13.27;76.72;100772.50;5071588;28;20047;-65
2023/03/20 09:58:58;;;;;;;4.95;3.22;;;;;;;13.61;73.53;100771.22;5071451;28;20493;-66
2023/03/20 10:01:30;;;;;;;5.22;2.97;;;;;;;14.06;75.94;100762.28;5071472;28;20040;-65
2023/03/20 10:03:59;;;;;;;6.20;2.58;;;;;;;14.63;68.84;100767.84;5071229;28;20294;-67
2023/03/20 10:06:24;;;;;;;6.28;2.83;;;;;;;14.76;67.72;100756.44;5071549;28;20641;-67
2023/03/20 10:08:50;;;;;;;7.47;3.03;;;;;;;14.86;65.62;100756.13;5074373;28;20040;-65
2023/03/20 10:11:54;;;;;;;6.13;3.55;;;;;;;14.56;67.05;100758.06;5075032;28;20476;-66
2023/03/20 10:14:57;;;;;;;6.85;3.03;;;;;;;14.91;66.95;100751.03;5032395;28;20037;-65
2023/03/20 10:17:39;;;;;;;7.80;3.53;;;;;;;14.97;66.00;100752.97;5074980;28;20071;-66
2023/03/20 10:20:33;;;;;;;4.88;2.72;;;;;;;14.88;63.99;100752.25;5075051;28;20405;-66
2023/03/20 10:23:12;;;;;;;4.15;2.88;;;;;;;14.74;61.90;100749.63;5074563;28;20111;-66
2023/03/20 10:25:48;;;;;;;5.50;2.75;;;;;;;14.75;61.94;100745.91;5074915;28;20040;-66
2023/03/20 10:28:20;;;;;;;5.28;2.60;;;;;;;14.62;62.84;100742.06;5074935;28;20032;-65
2023/03/20 10:31:21;;;;;;;4.28;2.30;;;;;;;14.83;63.08;100743.13;5074832;28;20047;-66
2023/03/20 10:34:39;;;;;;;4.20;2.65;;;;;;;15.08;63.46;100736.38;5074442;28;20116;-66
2023/03/20 10:37:27;;;;;;;4.70;2.22;;;;;;;15.30;61.28;100731.84;5055096;28;20136;-67
2023/03/20 10:40:20;;;;;;;5.78;2.92;;;;;;;15.27;60.40;100739.47;5074683;28;20032;-66
2023/03/20 10:42:49;;;;;;;4.10;2.20;;;;;;;15.11;60.24;100741.34;5074450;28;20043;-67
2023/03/20 10:45:42;;;;;;;4.13;2.28;;;;;;;14.84;60.59;100737.56;5074552;28;20040;-66
2023/03/20 10:48:20;;;;;;;4.82;2.33;;;;;;;15.02;59.67;100734.47;5074619;28;20043;-67
2023/03/20 10:51:05;;;;;;;3.83;2.08;;;;;;;15.57;58.21;100735.59;5074382;28;20123;-66
2023/03/20 10:53:40;;;;;;;4.28;2.50;;;;;;;15.89;56.45;100726.16;5074266;28;20036;-65
2023/03/20 10:56:11;;;;;;;2.83;1.77;;;;;;;16.72;54.60;100734.28;5074313;28;20055;-66
2023/03/20 10:58:43;;;;;;;3.22;1.77;;;;;;;17.55;52.79;100727.59;5074356;28;20036;-66
2023/03/20 11:01:08;;;;;;;4.07;2.05;;;;;;;18.39;51.46;100721.47;5074287;28;20020;-66
2023/03/20 11:03:38;;;;;;;5.75;1.80;;;;;;;19.49;48.66;100715.84;5073985;28;20420;-65
2023/03/20 11:06:27;;;;;;;4.00;2.50;;;;;;;19.65;46.74;100720.75;5074436;28;20396;-66
2023/03/20 11:08:53;;;;;;;3.40;2.10;;;;;;;19.02;44.87;100712.66;5083990;28;20054;-66
2023/03/20 11:11:27;;;;;;;3.95;2.58;;;;;;;18.02;47.02;100723.03;5094204;28;20036;-66
2023/03/20 11:13:52;;;;;;;4.10;2.45;;;;;;;17.37;47.89;100716.59;5093930;28;20034;-65
2023/03/20 11:16:33;;;;;;;4.95;2.63;;;;;;;16.78;49.75;100712.78;5094173;28;20403;-65
2023/03/20 11:19:05;;;;;;;4.43;2.15;;;;;;;16.54;52.34;100711.41;5094167;28;20089;-66
2023/03/20 11:21:32;;;;;;;3.83;2.30;;;;;;;16.07;53.93;100717.59;5095477;28;20077;-66
2023/03/20 11:23:57;;;;;;;3.53;1.88;;;;;;;15.90;56.16;100717.06;5093860;28;20378;-64
2023/03/20 11:26:39;;;;;;;3.40;2.20;;;;;;;15.71;56.32;100705.19;5094029;28;20117;-66
2023/03/20 11:29:26;;;;;;;5.30;2.00;;;;;;;15.67;58.03;100703.91;5094042;28;20032;-66
2023/03/20 11:31:52;;;;;;;;;;;;;;;15.43;58.26;100709.66;5090119;28;20511;-65
2023/03/20 11:34:17;;;;;;;2.28;1.70;;;;;;;15.48;57.54;100710.75;5093524;28;19990;-66
2023/03/20 11:37:04;;;;;;;3.05;1.80;;;;;;;15.56;55.95;100699.03;5093751;28;20036;-66
2023/03/20 11:39:34;;;;;;;3.50;1.65;;;;;;;15.63;56.75;100704.47;5093714;28;20488;-65
2023/03/20 11:42:00;;;;;;;3.55;1.90;;;;;;;15.50;57.47;100701.66;5092311;28;20032;-66
2023/03/20 11:44:30;;;;;;;4.45;1.98;;;;;;;15.46;56.48;100694.00;5092983;28;20047;-65
2023/03/20 11:47:13;;;;;;;3.35;1.95;;;;;;;15.68;56.53;100697.50;5093215;28;20031;-65
2023/03/20 11:49:55;;;;;;;4.45;1.88;;;;;;;16.06;56.34;100691.75;5093320;28;20036;-65
2023/03/20 11:52:27;;;;;;;3.25;1.70;;;;;;;16.24;52.00;100700.13;5092930;28;20097;-65
2023/03/20 11:54:56;;;;;;;3.55;1.70;;;;;;;16.41;53.25;100694.41;5093372;28;20036;-65
2023/03/20 11:57:41;;;;;;;4.63;2.10;;;;;;;16.88;52.53;100690.84;5093183;28;20046;-65
2023/03/20 12:00:19;;;;;;;4.50;1.67;;;;;;;17.36;51.80;100693.41;5093375;28;20485;-65
2023/03/20 12:02:45;;;;;;;4.72;1.90;;;;;;;17.55;52.21;100697.16;5092903;28;20051;-65
2023/03/20 12:05:35;;;;;;;2.30;1.65;;;;;;;17.31;50.94;100690.50;5093286;28;20075;-66
2023/03/20 12:08:25;;;;;;;3.00;2.08;;;;;;;16.90;50.75;100693.34;5092071;28;20121;-66
2023/03/20 12:10:58;;;;;;;3.85;2.25;;;;;;;16.48;50.57;100688.00;5093187;28;20050;-64
2023/03/20 12:13:38;;;;;;;2.70;1.60;;;;;;;16.29;53.10;100696.81;5093159;28;20036;-66
2023/03/20 12:16:10;;;;;;;4.15;1.75;;;;;;;16.15;54.21;100676.28;5093020;28;20481;-66
2023/03/20 12:18:46;;;;;;;3.00;1.88;;;;;;;16.44;52.91;100673.34;5092019;28;20389;-66
2023/03/20 12:21:36;;;;;;;3.33;1.85;;;;;;;16.64;51.97;100675.25;5092902;28;20071;-66
2023/03/20 12:24:21;;;;;;;3.28;2.03;;;;;;;16.67;51.59;100664.91;5092704;28;20024;-66
2023/03/20 12:27:11;;;;;;;3.15;2.03;;;;;;;16.71;52.20;100668.91;5092840;28;20035;-65
2023/03/20 12:29:53;;;;;;;2.90;1.75;;;;;;;17.26;51.99;100666.06;5092771;28;20066;-65
2023/03/20 12:32:26;;;;;;;2.13;1.40;;;;;;;18.17;49.30;100658.88;5091202;28;20043;-66
2023/03/20 12:35:15;;;;;;;3.42;1.90;;;;;;;18.59;48.22;100661.22;5091171;28;20044;-65
2023/03/20 12:37:41;;;;;;;2.47;1.90;;;;;;;18.62;45.87;100650.81;5082313;28;20032;-65
2023/03/20 12:40:17;;;;;;;2.63;1.95;;;;;;;18.86;46.18;100649.25;5065789;28;20059;-66
2023/03/20 12:42:52;;;;;;;2.85;1.75;;;;;;;17.71;46.21;100650.94;5092298;28;20035;-66
2023/03/20 12:45:22;;;;;;;4.53;1.52;;;;;;;17.90;46.77;100644.69;5092502;28;20475;-68
2023/03/20 12:48:33;;;;;;;5.53;1.70;;;;;;;17.97;46.74;100641.13;5092484;28;20100;-66
2023/03/20 12:51:11;;;;;;;2.00;1.60;;;;;;;17.97;47.84;100641.97;5092500;28;20056;-66
2023/03/20 12:53:59;;;;;;;3.35;2.05;;;;;;;17.61;47.94;100637.06;5092194;28;20071;-65
2023/03/20 12:56:45;;;;;;;2.05;1.33;;;;;;;17.63;46.24;100630.41;5092355;28;20040;-67
2023/03/20 12:59:16;;;;;;;2.78;1.60;;;;;;;17.92;46.77;100627.47;5079965;28;20480;-65
2023/03/20 13:01:52;;;;;;;2.28;1.55;;;;;;;17.33;47.27;100629.19;5091063;28;20093;-66
2023/03/20 13:04:26;;;;;;;2.40;1.75;;;;;;;17.14;48.92;100630.84;5091926;28;20039;-66
2023/03/20 13:06:54;;;;;;;2.67;1.75;;;;;;;16.51;48.99;100625.78;5092403;28;20450;-65
2023/03/20 13:09:47;;;;;;;2.10;1.67;;;;;;;16.13;48.77;100624.59;5091386;28;20038;-65
2023/03/20 13:12:43;;;;;;;2.55;1.83;;;;;;;16.09;50.09;100610.72;5091589;28;20032;-65
2023/03/20 13:15:46;;;;;;;1.75;1.40;;;;;;;16.06;49.65;100610.31;5091938;28;20461;-66
2023/03/20 13:18:37;;;;;;;2.35;1.30;;;;;;;16.00;49.59;100609.25;5091936;28;20508;-65
2023/03/20 13:21:12;;;;;;;1.48;1.00;;;;;;;15.98;49.87;100608.63;5090518;28;20039;-66
2023/03/20 13:23:53;;;;;;;2.38;1.20;;;;;;;15.94;51.64;100610.06;5089748;28;20089;-66
2023/03/20 13:26:31;;;;;;;1.73;1.50;;;;;;;15.90;50.15;100601.56;5091820;28;20071;-64
2023/03/20 13:29:17;;;;;;;1.85;1.30;;;;;;;15.80;51.20;100597.59;5091868;28;20032;-65
2023/03/20 13:31:46;;;;;;;2.20;1.48;;;;;;;15.98;50.66;100609.47;5091909;28;20374;-65
2023/03/20 13:34:49;;;;;;;2.03;1.48;;;;;;;16.08;49.84;100609.06;5090785;28;20036;-65
2023/03/20 13:37:15;;;;;;;1.40;1.10;;;;;;;16.20;49.62;100614.72;5090336;28;20032;-66
2023/03/20 13:39:47;;;;;;;2.03;1.27;;;;;;;16.54;48.81;100598.47;5091603;28;20101;-66
2023/03/20 13:42:20;;;;;;;1.90;1.35;;;;;;;16.66;48.15;100601.41;5091664;28;20032;-66
2023/03/20 13:44:48;;;;;;;2.50;1.65;;;;;;;16.92;48.53;100606.00;5095653;28;20507;-68
2023/03/20 13:47:18;;;;;;;;;;;;;;;17.16;45.97;100617.22;5096425;28;20392;-66
2023/03/20 13:49:58;;;;;;;2.03;1.38;;;;;;;16.91;45.77;100600.84;5095577;28;19912;-66
2023/03/20 13:52:29;;;;;;;1.48;1.02;;;;;;;16.91;47.10;100604.34;5094537;28;20040;-65
2023/03/20 13:55:14;;;;;;;1.98;1.27;;;;;;;16.80;48.14;100596.88;5095823;28;20032;-65
2023/03/20 13:57:51;;;;;;;1.77;1.35;;;;;;;16.87;48.28;100597.72;5094577;28;20036;-66
2023/03/20 14:00:23;;;;;;;;;;;;;;;16.88;48.63;100593.16;5096176;28;20031;-67
2023/03/20 14:03:14;;;;;;;2.53;1.42;;;;;;;16.95;47.77;100583.22;5094072;28;19912;-66
2023/03/20 14:05:41;;;;;;;4.60;1.40;;;;;;;16.78;48.67;100580.13;5095598;28;20093;-66
2023/03/20 14:08:26;;;;;;;1.83;1.33;;;;;;;16.90;47.92;100580.34;5095627;28;20039;-66
2023/03/20 14:11:03;;;;;;;1.85;1.60;;;;;;;16.46;48.30;100569.09;5095382;28;20043;-66
2023/03/20 14:13:29;;;;;;;2.40;1.52;;;;;;;16.31;47.58;100562.25;5077027;28;20114;-66
2023/03/20 14:15:59;;;;;;;2.38;1.20;;;;;;;16.50;48.81;100569.53;5095442;28;20451;-66
2023/03/20 14:18:25;;;;;;;1.60;1.13;;;;;;;16.26;49.90;100568.22;5095355;28;20039;-66
2023/03/20 14:20:55;;;;;;;2.95;1.48;;;;;;;16.31;49.19;100573.00;5094268;28;20381;-66
2023/03/20 14:23:35;;;;;;;2.40;1.33;;;;;;;15.89;49.53;100566.84;5093737;28;20499;-66
2023/03/20 14:26:19;;;;;;;3.25;1.42;;;;;;;15.95;49.71;100569.53;5095181;28;20032;-65
2023/03/20 14:29:10;;;;;;;3.17;2.03;;;;;;;15.70;49.76;100571.06;5095188;28;20475;-66
2023/03/20 14:31:37;;;;;;;3.08;1.30;;;;;;;15.63;51.18;100568.38;5084319;28;20669;-66
2023/03/20 14:34:11;;;;;;;4.03;1.60;;;;;;;15.48;50.90;100568.47;5094767;28;20047;-65
2023/03/20 14:37:00;;;;;;;1.92;1.38;;;;;;;15.60;51.79;100570.59;5094974;28;20032;-66
2023/03/20 14:39:42;;;;;;;2.20;1.45;;;;;;;15.67;51.35;100566.94;5095039;28;20032;-67
2023/03/20 14:42:13;;;;;;;1.63;1.30;;;;;;;15.46;51.71;100567.00;5094988;28;20028;-66
2023/03/20 14:44:57;;;;;;;2.40;1.50;;;;;;;15.25;51.58;100567.06;5094986;28;20047;-66
2023/03/20 14:48:01;;;;;;;2.17;1.50;;;;;;;15.17;52.68;100562.66;5094828;28;20150;-69
2023/03/20 14:50:32;;;;;;;2.45;1.33;;;;;;;15.17;52.46;100565.34;5092412;28;20455;-66
2023/03/20 14:52:57;;;;;;;1.73;1.10;;;;;;;15.27;52.38;100571.22;5094412;28;20035;-65
2023/03/20 14:55:32;;;;;;;2.28;1.35;;;;;;;15.06;52.38;100568.56;5094473;28;20031;-65
2023/03/20 14:58:24;;;;;;;1.48;1.15;;;;;;;14.96;52.22;100571.59;5094596;28;20382;-66
2023/03/20 15:00:49;;;;;;;2.92;1.50;;;;;;;14.88;53.15;100558.34;5094386;28;20464;-65
2023/03/20 15:03:16;;;;;;;1.42;1.30;;;;;;;14.76;53.26;100565.25;5094212;28;20089;-65
2023/03/20 15:05:43;;;;;;;2.63;1.30;;;;;;;14.80;52.98;100555.75;5094132;28;20369;-65
2023/03/20 15:08:10;;;;;;;1.58;1.08;;;;;;;14.66;54.27;100560.19;5094238;28;20085;-65
2023/03/20 15:10:44;;;;;;;1.75;1.27;;;;;;;14.72;53.71;100566.63;5094267;28;20039;-64
2023/03/20 15:13:12;;;;;;;3.08;1.38;;;;;;;14.74;54.65;100557.41;5093898;28;20097;-64
2023/03/20 15:15:38;;;;;;;1.98;1.33;;;;;;;14.69;53.94;100553.63;5094210;28;20032;-65
2023/03/20 15:18:10;;;;;;;2.67;1.40;;;;;;;14.79;53.60;100554.94;5094153;28;20105;-65
2023/03/20 15:20:35;;;;;;;2.95;1.30;;;;;;;14.76;53.51;100560.69;5086074;28;20395;-65
2023/03/20 15:23:01;;;;;;;1.50;1.20;;;;;;;14.64;54.08;100563.06;5073707;28;20128;-65
2023/03/20 15:25:38;;;;;;;2.13;1.17;;;;;;;14.77;53.05;100561.53;5073734;28;20087;-66
2023/03/20 15:28:11;;;;;;;3.38;1.13;;;;;;;14.73;54.91;100563.75;5073929;28;20032;-62
2023/03/20 15:30:38;;;;;;;4.60;1.33;;;;;;;14.79;53.62;100571.03;5073661;28;20040;-62
2023/03/20 15:33:05;;;;;;;1.75;1.02;;;;;;;14.88;54.16;100569.06;5073664;28;20032;-60
2023/03/20 15:35:31;;;;;;;2.10;1.00;;;;;;;14.92;53.20;100575.69;5074047;28;20115;-64
2023/03/20 15:38:03;;;;;;;1.58;1.10;;;;;;;14.82;52.02;100569.81;5073638;28;20041;-64
2023/03/20 15:40:30;;;;;;;2.45;1.38;;;;;;;14.56;54.24;100565.06;5073509;28;20378;-65
2023/03/20 15:43:10;;;;;;;2.28;1.38;;;;;;;14.69;53.16;100565.19;5073155;28;20097;-64
2023/03/20 15:45:39;;;;;;;1.52;1.20;;;;;;;14.51;53.27;100562.94;5073384;28;20037;-64
2023/03/20 15:48:06;;;;;;;2.03;1.35;;;;;;;14.48;54.45;100567.88;5073404;28;20039;-65
2023/03/20 15:50:38;;;;;;;2.00;1.08;;;;;;;14.48;54.16;100562.50;5073140;28;20058;-64
2023/03/20 15:53:05;;;;;;;1.35;1.00;;;;;;;14.39;56.14;100559.88;5072905;28;20036;-64
2023/03/20 15:55:31;;;;;;;1.48;1.38;;;;;;;14.30;55.05;100558.38;5073150;28;20037;-64
2023/03/20 15:57:59;;;;;;;2.08;1.30;;;;;;;14.32;54.43;100553.63;5073226;28;20047;-65
2023/03/20 16:00:31;;;;;;;3.38;1.38;;;;;;;14.32;55.47;100559.00;5073157;28;20404;-65
2023/03/20 16:02:59;;;;;;;2.53;1.40;;;;;;;14.20;56.35;100555.16;5072755;28;20481;-64
2023/03/20 16:05:27;;;;;;;3.83;1.27;;;;;;;14.13;55.67;100554.25;5072002;28;20044;-64
2023/03/20 16:07:54;;;;;;;2.40;1.48;;;;;;;14.22;54.61;100560.34;5073031;28;20020;-64
2023/03/20 16:10:27;;;;;;;1.85;1.35;;;;;;;14.09;55.85;100550.31;5072940;28;20047;-64
2023/03/20 16:12:55;;;;;;;2.55;1.42;;;;;;;14.09;56.21;100544.94;5072574;28;20082;-62
2023/03/20 16:15:26;;;;;;;2.33;1.45;;;;;;;14.09;55.87;100543.09;5072673;28;20040;-64
2023/03/20 16:17:55;;;;;;;3.47;1.40;;;;;;;13.94;55.32;100538.78;5072840;28;20482;-64
2023/03/20 16:20:22;;;;;;;2.17;1.48;;;;;;;13.84;56.27;100539.09;5072637;28;20123;-63
2023/03/20 16:22:49;;;;;;;1.90;1.35;;;;;;;13.90;56.37;100529.47;5072443;28;20557;-64
2023/03/20 16:25:17;;;;;;;4.75;1.70;;;;;;;13.84;56.69;100536.41;5072595;28;20048;-63
2023/03/20 16:27:45;;;;;;;2.70;1.90;;;;;;;13.75;57.45;100532.16;5072678;28;20040;-64
2023/03/20 16:30:22;;;;;;;2.50;1.70;;;;;;;13.84;56.41;100539.91;5072516;28;20033;-62
2023/03/20 16:32:54;;;;;;;3.40;1.63;;;;;;;13.84;57.03;100542.59;5072229;28;20553;-64
2023/03/20 16:35:24;;;;;;;3.40;1.80;;;;;;;13.69;58.02;100530.22;5072468;28;20481;-63
2023/03/20 16:37:55;;;;;;;3.17;1.70;;;;;;;13.71;58.97;100541.59;5072452;28;20119;-64
2023/03/20 16:40:26;;;;;;;1.88;1.40;;;;;;;13.71;58.32;100542.44;5072403;28;20477;-64
2023/03/20 16:42:53;;;;;;;3.13;1.25;;;;;;;13.72;57.34;100533.38;5071914;28;20028;-64
2023/03/20 16:45:30;;;;;;;3.13;2.20;;;;;;;13.61;58.12;100527.66;5071179;28;20037;-64
2023/03/20 16:48:22;;;;;;;1.80;1.65;;;;;;;13.53;59.53;100531.28;5070939;28;20044;-64
2023/03/20 16:50:55;;;;;;;3.85;2.20;;;;;;;13.44;58.98;100535.91;5055883;28;20135;-62
2023/03/20 16:53:23;;;;;;;2.35;1.65;;;;;;;13.29;59.03;100533.19;5071956;28;20072;-63
2023/03/20 16:55:50;;;;;;;1.98;1.40;;;;;;;13.29;59.55;100535.03;5072140;28;20024;-64
2023/03/20 16:58:23;;;;;;;2.10;1.30;;;;;;;13.30;59.64;100540.22;5072188;28;20037;-64
2023/03/20 17:01:02;;;;;;;2.22;1.50;;;;;;;13.24;60.13;100551.66;5072166;28;20043;-63
2023/03/20 17:03:42;;;;;;;1.98;1.63;;;;;;;13.14;59.66;100548.38;5071846;28;20056;-64
2023/03/20 17:06:34;;;;;;;3.40;1.83;;;;;;;13.13;60.04;100546.72;5071995;28;20043;-63
2023/03/20 17:09:14;;;;;;;1.80;1.48;;;;;;;13.02;60.20;100539.97;5071997;28;20055;-64
2023/03/20 17:11:46;;;;;;;2.35;1.80;;;;;;;12.98;62.08;100541.34;5071952;28;20075;-62
2023/03/20 17:14:11;;;;;;;1.67;1.40;;;;;;;12.87;61.92;100548.97;5071779;28;20047;-64